Skip Navigation Links
NOAA logo - Click to go to the NOAA homepage
NOAA's National Weather Service
Alaska Aviation Weather Unit
  NWS logo - Click to go to the NWS homepage
Left Navbar Graphic     12 AKDT = 20 GMT

   
NOAA is celebrating 200 years of science, service, and stewardship. Visit the NOAA 200th celebration Web site to learn more.
USA.gov is the U.S. Government's official Web portal to all Federal, state and local government Web resources and services.
Facebook
NWS on Facebook

Important Change Regarding the AAWU Web Presence

 

Over the last several months, the AAWU has been working to navigate its webpages to a nationally supported server. Security, as well as other needs, have necessitated the change.  We have been given an extension for the site changeover while we diligently work at addressing feedback received. As of July 14, 2017, aawu.arh.noaa.gov will be discontinued. The new AAWU web address is weather.gov/aawu. It is now live and will run in-parallel with the old site until it is discontinued on July 14, 2017. Please continue to send any feedback or questions regarding the new webpages to nws.ar.aawu.webauthors@noaa.gov.  Thank you for your patience during this time of transition.
AAWU Home :: Display TAF Add Bookmark
METAR PABL 251456Z AUTO 15003KT 8SM OVC048 12/11 A2989 RMK AO2
 SLP124 T01170111 58002=

SPECI PABL 251520Z AUTO 10003KT 10SM FEW007 BKN022 OVC041 12/11
 A2989 RMK AO2=

SPECI PABL 251541Z AUTO 09004KT 10SM SCT007 OVC039 12/11 A2988 RMK
     AO2=

SPECI PABL 251549Z AUTO 10003KT 10SM BKN007 OVC039 12/11 A2988 RMK
     AO2=

METAR PABL 251556Z AUTO 12004KT 10SM BKN007 OVC039 12/11 A2988 RMK
 AO2 SLP121 T01220111=

METAR PABL 251656Z AUTO 14005KT 10SM OVC007 13/11 A2988 RMK AO2 SLP119
     T01280111=

PABL 251739Z AUTO 14004KT 10SM OVC011 13/12 A2988 RMK AO2 CIG
     007V012=

METAR PABL 251756Z AUTO 12004KT 10SM BKN006 OVC011 13/12 A2987 RMK AO2
     SLP118 T01280117 10128 20111 56005=

SPECI PABL 251805Z AUTO 13004KT 10SM SCT006 OVC011 13/12 A2987 RMK
     AO2=

SPECI PABL 251812Z AUTO 12004KT 10SM BKN008 OVC011 13/12 A2987 RMK
 AO2 CIG 005V011=

SPECI PABL 251823Z AUTO 13004KT 10SM OVC011 14/12 A2987 RMK AO2=

SPECI PABL 251840Z AUTO VRB03KT 10SM OVC015 14/12 A2987 RMK AO2=

METAR PABL 251856Z AUTO 00000KT 10SM OVC017 14/12 A2987 RMK AO2 SLP116
     T01440117=

PABL 251937Z AUTO 00000KT 10SM -RA SCT012 BKN042 OVC060 14/11
     A2986 RMK AO2 RAB29 P0000=

METAR PABL 251956Z AUTO 00000KT 10SM FEW014 BKN040 OVC049 15/11 A2986
     RMK AO2 RAB29E54 SLP113 P0000 T01500111=


NOAA's National Weather Service
Alaska Aviation Weather Unit
6930 Sand Lake Road
Anchorage, AK 99502-1845
Disclaimer
Credits
Glossary
Privacy Policy
About Us
Career Opportunities
Contact AAWU Internet Services Site last modified: April, 17th 2012